Time;durP1;ratioP1;P1;durP2;ratioP2;P2;SDS_P1;SDS_P2;PMS_P1;PMS_P2;Temp;Humidity;BMP_temperature;BMP_pressure;BME280_temperature;BME280_humidity;BME280_pressure;Samples;Min_cycle;Max_cycle;Signal;HPM_P1;HPM_P2
2021/11/07 00:04:12;;;;;;;27.98;11.50;;;;;;;7.23;82.74;102099.39;1771401;78;21056;-66
2021/11/07 00:06:38;;;;;;;27.95;12.90;;;;;;;7.19;82.94;102105.63;1772987;78;21060;-67
2021/11/07 00:09:16;;;;;;;29.12;12.20;;;;;;;7.19;83.30;102118.09;1766287;78;25779;-66
2021/11/07 00:11:39;;;;;;;30.77;12.75;;;;;;;7.17;83.44;102126.07;1767740;78;21004;-66
2021/11/07 00:14:07;;;;;;;27.73;12.65;;;;;;;7.13;83.60;102119.83;1769252;78;21144;-66
2021/11/07 00:16:36;;;;;;;33.85;12.53;;;;;;;7.15;83.79;102127.85;1765290;78;21134;-67
2021/11/07 00:19:09;;;;;;;29.23;12.10;;;;;;;7.15;83.65;102115.38;1771654;78;21065;-67
2021/11/07 00:21:42;;;;;;;27.30;11.48;;;;;;;7.12;83.64;102108.72;1770483;78;21091;-66
2021/11/07 00:24:10;;;;;;;23.95;11.53;;;;;;;7.08;83.51;102114.07;1760250;78;21084;-67
2021/11/07 00:26:46;;;;;;;28.87;11.55;;;;;;;7.02;83.62;102109.61;1764409;78;21405;-66
2021/11/07 00:36:58;;;;;;;37.88;12.88;;;;;;;6.93;83.94;102107.81;1783846;79;20496;-67
2021/11/07 00:39:42;;;;;;;38.05;12.15;;;;;;;6.90;84.12;102098.91;1786755;77;20965;-66
2021/11/07 00:42:29;;;;;;;24.52;11.95;;;;;;;6.90;84.21;102104.23;1780587;79;21497;-66
2021/11/07 00:44:57;;;;;;;28.92;12.30;;;;;;;6.87;84.13;102108.68;1787213;79;21104;-66
2021/11/07 00:47:43;;;;;;;31.40;12.37;;;;;;;6.85;84.31;102095.80;1786856;77;21018;-66
2021/11/07 00:50:11;;;;;;;30.05;11.28;;;;;;;6.84;84.33;102095.34;1781857;79;21423;-65
2021/11/07 00:52:54;;;;;;;24.65;11.10;;;;;;;6.83;84.29;102098.90;1779573;79;22274;-66
2021/11/07 00:55:26;;;;;;;30.40;11.70;;;;;;;6.79;84.16;102107.78;1781917;79;21049;-65
2021/11/07 00:58:07;;;;;;;25.82;10.88;;;;;;;6.72;84.29;102107.30;1777144;79;21085;-66
2021/11/07 01:03:02;;;;;;;33.05;10.90;;;;;;;6.58;84.54;102097.93;1783776;79;21069;-67
2021/11/07 01:05:32;;;;;;;30.80;11.00;;;;;;;6.49;84.66;102109.91;1788172;79;21948;-66
2021/11/07 01:07:59;;;;;;;25.62;10.48;;;;;;;6.43;85.23;102107.67;1723186;80;21069;-67
2021/11/07 01:10:27;;;;;;;21.48;9.40;;;;;;;6.36;85.36;102101.84;1742197;81;21090;-66
2021/11/07 01:12:54;;;;;;;23.98;9.65;;;;;;;6.26;85.51;102100.91;1742052;81;21004;-66
2021/11/07 01:15:23;;;;;;;23.67;9.65;;;;;;;6.18;85.88;102093.34;1735664;81;21060;-67
2021/11/07 01:17:49;;;;;;;22.35;10.23;;;;;;;6.12;86.24;102087.99;1742989;79;20954;-67
2021/11/07 01:20:19;;;;;;;22.50;10.35;;;;;;;6.06;86.75;102087.51;1737461;81;21052;-67
2021/11/07 01:25:17;;;;;;;24.75;11.53;;;;;;;6.04;87.54;102076.39;1731750;80;21069;-67
2021/11/07 01:27:45;;;;;;;28.50;11.50;;;;;;;6.02;87.79;102083.06;1744483;80;20997;-66
2021/11/07 01:30:18;;;;;;;27.37;11.55;;;;;;;5.98;88.10;102083.44;1736979;81;21147;-66
2021/11/07 01:32:48;;;;;;;26.45;12.37;;;;;;;5.97;88.22;102088.31;1786724;78;21011;-67
2021/11/07 01:35:29;;;;;;;26.05;11.60;;;;;;;5.98;88.67;102088.77;1782431;77;21571;-67
2021/11/07 01:37:59;;;;;;;;;;;;;;;5.99;89.03;102087.87;1788088;79;21050;-66
2021/11/07 01:40:29;;;;;;;25.43;11.05;;;;;;;5.99;89.07;102089.20;1787028;79;20211;-66
2021/11/07 01:42:58;;;;;;;27.13;11.60;;;;;;;5.98;89.44;102083.89;1786679;78;21094;-66
2021/11/07 01:45:33;;;;;;;27.50;11.75;;;;;;;5.95;89.68;102084.75;1783952;77;21268;-66
2021/11/07 01:48:17;;;;;;;27.32;12.40;;;;;;;5.94;90.06;102089.62;1793323;78;21351;-67
2021/11/07 01:50:51;;;;;;;28.57;12.53;;;;;;;5.96;90.54;102090.53;1785051;79;21042;-66
2021/11/07 01:55:45;;;;;;;26.85;12.63;;;;;;;5.98;90.75;102080.77;1787492;77;21426;-66
2021/11/07 01:58:12;;;;;;;25.02;11.57;;;;;;;5.98;90.87;102086.55;1789798;78;21573;-66
2021/11/07 02:00:39;;;;;;;24.02;11.15;;;;;;;5.95;91.01;102078.52;1781970;79;21038;-67
2021/11/07 02:03:06;;;;;;;25.50;11.60;;;;;;;5.97;91.05;102089.64;1789249;77;21017;-66
2021/11/07 02:05:33;;;;;;;25.37;11.73;;;;;;;5.97;91.24;102097.63;1783943;77;21094;-66
2021/11/07 02:08:03;;;;;;;28.80;12.58;;;;;;;5.97;91.23;102089.64;1793229;79;21127;-67
2021/11/07 02:10:29;;;;;;;26.17;11.88;;;;;;;5.97;91.22;102090.97;1795445;78;21047;-67
2021/11/07 02:12:56;;;;;;;26.60;11.73;;;;;;;5.97;91.08;102086.98;1785788;79;21059;-66
2021/11/07 02:15:23;;;;;;;23.45;11.18;;;;;;;5.97;91.15;102082.11;1790105;77;22071;-66
2021/11/07 02:17:50;;;;;;;27.55;11.73;;;;;;;5.99;91.20;102071.91;1782482;79;20977;-66
2021/11/07 02:20:33;;;;;;;23.25;11.25;;;;;;;6.05;91.18;102079.50;1785028;79;21125;-66
2021/11/07 02:23:06;;;;;;;25.10;11.93;;;;;;;6.09;91.20;102073.33;1784141;77;21073;-66
2021/11/07 02:25:33;;;;;;;28.32;13.03;;;;;;;6.09;91.10;102072.88;1792507;79;21019;-66
2021/11/07 02:28:02;;;;;;;23.25;13.18;;;;;;;6.09;91.00;102066.22;1791161;78;20993;-66
2021/11/07 02:30:29;;;;;;;25.68;12.68;;;;;;;6.10;91.17;102076.44;1789015;79;21030;-65
2021/11/07 02:32:58;;;;;;;25.52;11.65;;;;;;;6.12;91.07;102080.00;1777353;78;21492;-67
2021/11/07 02:35:26;;;;;;;26.35;12.78;;;;;;;6.12;91.22;102080.00;1777997;79;20978;-67
2021/11/07 02:37:54;;;;;;;25.00;11.60;;;;;;;6.17;91.14;102080.91;1777122;79;21059;-66
2021/11/07 02:40:21;;;;;;;25.60;11.88;;;;;;;6.17;91.06;102078.24;1775872;79;21042;-66
2021/11/07 02:42:48;;;;;;;25.70;12.15;;;;;;;6.13;91.18;102073.79;1783432;78;21013;-67
2021/11/07 02:45:16;;;;;;;26.30;12.43;;;;;;;6.12;91.56;102086.20;1767459;79;21113;-67
2021/11/07 02:47:45;;;;;;;27.15;12.95;;;;;;;6.13;91.72;102085.31;1768322;79;21058;-67
2021/11/07 02:50:14;;;;;;;26.77;12.65;;;;;;;6.14;91.78;102083.56;1774558;79;21084;-67
2021/11/07 02:52:41;;;;;;;31.50;12.90;;;;;;;6.13;91.97;102075.99;1781532;78;21064;-66
2021/11/07 02:55:08;;;;;;;26.62;13.28;;;;;;;6.13;91.99;102071.13;1777794;79;21003;-66
2021/11/07 02:57:36;;;;;;;27.82;12.78;;;;;;;6.10;92.15;102065.79;1778695;79;21526;-66
2021/11/07 03:00:06;;;;;;;27.48;12.40;;;;;;;6.13;92.25;102071.13;1779099;79;21411;-67
2021/11/07 03:02:33;;;;;;;25.08;12.88;;;;;;;6.12;92.29;102069.35;1778277;78;21131;-66
2021/11/07 03:05:01;;;;;;;30.30;13.60;;;;;;;6.11;92.30;102070.23;1773188;79;21041;-67
2021/11/07 03:07:28;;;;;;;26.62;13.00;;;;;;;6.12;92.22;102077.34;1782195;78;21222;-66
2021/11/07 03:09:55;;;;;;;31.10;13.90;;;;;;;6.11;92.13;102064.91;1778625;78;21140;-67
2021/11/07 03:12:21;;;;;;;27.80;13.55;;;;;;;6.09;92.08;102060.02;1779286;78;21123;-67
2021/11/07 03:14:52;;;;;;;29.10;12.65;;;;;;;6.06;92.24;102062.64;1780911;79;20955;-66
2021/11/07 03:17:22;;;;;;;25.80;12.68;;;;;;;6.06;92.39;102066.20;1774180;79;21055;-67
2021/11/07 03:19:49;;;;;;;25.85;12.75;;;;;;;6.04;92.32;102072.39;1773149;78;21539;-66
2021/11/07 03:22:21;;;;;;;27.60;13.85;;;;;;;6.00;92.48;102083.00;1774225;79;21443;-67
2021/11/07 03:24:52;;;;;;;26.60;13.20;;;;;;;5.98;92.60;102086.09;1776533;79;21065;-66
2021/11/07 03:27:19;;;;;;;27.80;14.33;;;;;;;5.97;92.69;102078.12;1777239;79;21540;-66
2021/11/07 03:29:50;;;;;;;28.92;13.95;;;;;;;5.91;92.75;102073.64;1746087;78;21096;-66
2021/11/07 03:34:53;;;;;;;25.40;13.35;;;;;;;5.84;93.11;102074.05;1784959;79;21429;-66
2021/11/07 03:37:22;;;;;;;25.70;12.98;;;;;;;5.82;93.40;102066.91;1776854;79;21573;-67
2021/11/07 03:39:51;;;;;;;28.20;13.48;;;;;;;5.84;93.47;102071.80;1785536;77;21056;-66
2021/11/07 03:42:19;;;;;;;29.42;14.85;;;;;;;5.82;93.67;102063.83;1783971;79;21358;-66
2021/11/07 03:44:46;;;;;;;35.45;15.78;;;;;;;5.83;93.70;102064.70;1784135;79;21012;-66
2021/11/07 03:47:12;;;;;;;33.63;15.23;;;;;;;5.83;93.84;102060.70;1787527;78;21935;-67
2021/11/07 03:49:39;;;;;;;35.98;14.98;;;;;;;5.82;93.96;102058.51;1785838;79;21067;-67
2021/11/07 03:52:07;;;;;;;30.80;14.18;;;;;;;5.86;94.00;102056.77;1786927;79;21452;-66
2021/11/07 03:54:35;;;;;;;38.08;14.45;;;;;;;5.93;94.26;102057.66;1784736;79;21111;-67
2021/11/07 03:57:03;;;;;;;29.07;14.30;;;;;;;5.99;93.90;102052.39;1787255;79;21064;-67
2021/11/07 03:59:30;;;;;;;29.02;13.83;;;;;;;6.00;93.91;102047.05;1780033;78;21734;-66
2021/11/07 04:01:57;;;;;;;31.12;15.58;;;;;;;6.02;93.73;102061.30;1783883;79;21633;-67
2021/11/07 04:04:24;;;;;;;29.65;13.68;;;;;;;5.99;93.66;102074.56;1781636;79;21409;-67
2021/11/07 04:06:51;;;;;;;30.43;15.58;;;;;;;5.98;93.71;102062.13;1788307;79;21032;-66
2021/11/07 04:09:19;;;;;;;35.25;13.72;;;;;;;5.95;93.54;102056.80;1790873;77;21119;-65
2021/11/07 04:11:45;;;;;;;25.45;14.18;;;;;;;5.93;93.61;102056.33;1783632;78;21192;-67
2021/11/07 04:14:13;;;;;;;25.70;14.63;;;;;;;5.90;93.55;102049.23;1786264;79;21104;-66
2021/11/07 04:16:40;;;;;;;29.98;14.50;;;;;;;5.87;93.64;102054.09;1788329;79;21026;-66
2021/11/07 04:19:07;;;;;;;32.70;14.05;;;;;;;5.84;93.63;102055.83;1782888;77;21061;-66
2021/11/07 04:21:35;;;;;;;33.40;15.38;;;;;;;5.79;93.72;102048.27;1782644;79;21041;-66
2021/11/07 04:24:02;;;;;;;29.45;15.03;;;;;;;5.75;93.79;102046.05;1789743;79;21973;-67
2021/11/07 04:26:29;;;;;;;29.77;14.53;;;;;;;5.75;93.95;102046.05;1783409;79;21708;-66
2021/11/07 04:28:55;;;;;;;28.77;14.78;;;;;;;5.77;94.13;102050.03;1787267;77;21044;-66
2021/11/07 04:31:22;;;;;;;28.23;14.03;;;;;;;5.80;94.21;102055.38;1781676;79;21086;-66
2021/11/07 04:33:48;;;;;;;28.20;15.05;;;;;;;5.82;94.11;102057.59;1788942;79;21476;-66
2021/11/07 04:36:16;;;;;;;30.30;14.60;;;;;;;5.80;93.86;102038.07;1742872;80;21194;-66
2021/11/07 04:38:42;;;;;;;28.65;14.75;;;;;;;5.77;93.94;102035.40;1744128;80;21565;-66
2021/11/07 04:41:16;;;;;;;32.05;14.43;;;;;;;5.73;93.88;102030.06;1747071;80;21060;-66
2021/11/07 04:43:38;;;;;;;37.53;15.53;;;;;;;5.73;93.88;102030.06;1744495;81;21652;-66
2021/11/07 04:46:04;;;;;;;42.88;17.37;;;;;;;5.63;94.17;102026.87;1740396;80;21139;-66
2021/11/07 04:48:32;;;;;;;44.90;16.67;;;;;;;5.63;94.17;102026.87;1744037;79;21106;-66
2021/11/07 04:50:59;;;;;;;57.53;18.15;;;;;;;5.59;94.18;102036.64;1754331;80;21568;-66
2021/11/07 04:53:26;;;;;;;42.25;16.50;;;;;;;5.57;94.35;102039.73;1734858;80;21063;-66
2021/11/07 04:55:54;;;;;;;38.78;14.85;;;;;;;5.58;94.60;102037.94;1754263;81;21076;-66
2021/11/07 04:58:21;;;;;;;28.83;14.38;;;;;;;5.64;94.43;102055.72;1722218;80;21080;-66
2021/11/07 05:00:48;;;;;;;31.30;14.55;;;;;;;5.64;94.43;102055.72;1793587;78;21130;-67
2021/11/07 05:03:14;;;;;;;32.67;14.85;;;;;;;5.63;94.57;102053.48;1781934;79;21052;-66
2021/11/07 05:05:42;;;;;;;37.33;14.63;;;;;;;5.67;94.66;102053.08;1784917;77;21143;-67
2021/11/07 05:08:09;;;;;;;43.25;14.83;;;;;;;5.79;94.40;102057.59;1788016;79;21534;-66
2021/11/07 05:10:36;;;;;;;27.42;14.15;;;;;;;5.79;94.40;102057.59;1780562;78;21057;-66
2021/11/07 05:13:04;;;;;;;32.08;14.10;;;;;;;5.85;94.34;102056.28;1777920;79;21577;-67
2021/11/07 05:15:31;;;;;;;28.75;15.63;;;;;;;5.88;93.96;102051.00;1785753;77;21037;-66
2021/11/07 05:17:58;;;;;;;33.23;14.38;;;;;;;5.92;93.84;102050.13;1781505;79;21395;-66
2021/11/07 05:20:24;;;;;;;40.92;15.30;;;;;;;5.96;93.76;102049.26;1779988;79;21067;-66
2021/11/07 05:22:51;;;;;;;39.50;16.55;;;;;;;6.01;93.56;102048.87;1783513;79;21072;-67
2021/11/07 05:25:17;;;;;;;50.35;18.73;;;;;;;6.07;93.45;102041.78;1787032;77;21667;-67
2021/11/07 05:27:44;;;;;;;43.95;15.68;;;;;;;6.13;93.36;102042.70;1782730;79;21048;-67
2021/11/07 05:30:13;;;;;;;59.13;14.90;;;;;;;6.17;92.92;102044.95;1774785;78;21020;-67
2021/11/07 05:32:40;;;;;;;49.03;15.00;;;;;;;6.15;92.89;102052.05;1786146;79;21045;-66
2021/11/07 05:35:07;;;;;;;33.55;14.03;;;;;;;6.18;92.94;102067.13;1785369;77;21021;-67
2021/11/07 05:37:34;;;;;;;45.75;16.20;;;;;;;6.23;92.85;102072.94;1783321;79;21140;-66
2021/11/07 05:40:00;;;;;;;46.02;15.03;;;;;;;6.30;92.75;102071.19;1781174;79;21006;-66
2021/11/07 05:42:26;;;;;;;37.83;14.15;;;;;;;6.40;92.57;102076.11;1773908;79;21064;-65
2021/11/07 05:44:53;;;;;;;35.35;13.18;;;;;;;6.55;92.37;102092.17;1778464;79;21537;-67
2021/11/07 05:47:19;;;;;;;37.55;15.03;;;;;;;6.74;92.12;102085.53;1777602;79;21081;-67
2021/11/07 05:49:46;;;;;;;24.80;13.38;;;;;;;6.96;91.78;102085.58;1780166;79;21117;-67
2021/11/07 05:52:12;;;;;;;28.02;14.47;;;;;;;7.15;90.86;102079.38;1781283;79;21065;-66
2021/11/07 05:54:39;;;;;;;34.13;15.10;;;;;;;7.28;89.87;102073.59;1784207;79;21047;-67
2021/11/07 05:57:06;;;;;;;37.55;15.10;;;;;;;7.38;89.12;102073.16;1777845;79;21027;-66
2021/11/07 05:59:33;;;;;;;30.10;14.93;;;;;;;7.50;88.51;102070.05;1779705;79;21735;-66
2021/11/07 06:02:00;;;;;;;44.53;19.40;;;;;;;7.57;87.75;102058.46;1782587;78;21753;-66
2021/11/07 06:04:26;;;;;;;45.98;18.42;;;;;;;7.63;87.39;102054.47;1782553;77;21053;-67
2021/11/07 06:06:53;;;;;;;75.30;19.20;;;;;;;7.70;87.06;102049.98;1780118;79;21044;-67
2021/11/07 06:09:20;;;;;;;55.05;18.40;;;;;;;7.78;86.78;102052.64;1784998;79;21152;-67
2021/11/07 06:11:46;;;;;;;80.07;18.00;;;;;;;7.82;86.50;102047.73;1779192;79;21035;-66
2021/11/07 06:14:15;;;;;;;51.50;16.30;;;;;;;7.85;86.36;102043.74;1787722;77;21291;-67
2021/11/07 06:16:41;;;;;;;51.98;15.40;;;;;;;7.88;86.25;102038.39;1779590;79;21091;-66
2021/11/07 06:19:08;;;;;;;49.75;15.28;;;;;;;7.89;86.03;102045.50;1782294;79;21402;-67
2021/11/07 06:21:36;;;;;;;54.67;15.28;;;;;;;7.87;85.97;102060.65;1776837;79;21482;-66
2021/11/07 06:24:07;;;;;;;50.65;15.43;;;;;;;7.84;85.94;102053.52;1778013;77;22151;-67
2021/11/07 06:26:33;;;;;;;52.35;16.37;;;;;;;7.86;86.36;102044.19;1775725;78;21781;-67
2021/11/07 06:28:59;;;;;;;41.13;15.95;;;;;;;7.97;86.78;102044.15;1784920;79;21486;-67
2021/11/07 06:31:26;;;;;;;31.42;14.30;;;;;;;8.11;86.60;102037.42;1786201;77;21064;-67
2021/11/07 06:33:52;;;;;;;36.10;15.45;;;;;;;8.24;86.48;102044.47;1780836;77;21075;-67
2021/11/07 06:36:19;;;;;;;33.13;14.53;;;;;;;8.37;86.37;102035.94;1782631;79;21588;-67
2021/11/07 06:38:47;;;;;;;25.05;15.08;;;;;;;8.50;86.26;102032.78;1785815;79;21132;-67
2021/11/07 06:41:13;;;;;;;33.58;15.78;;;;;;;8.60;86.01;102034.52;1777131;78;21711;-67
2021/11/07 06:43:40;;;;;;;25.68;13.83;;;;;;;8.71;85.96;102030.45;1788369;78;21047;-67
2021/11/07 06:46:07;;;;;;;29.83;14.10;;;;;;;8.86;85.90;102030.78;1781266;78;21026;-67
2021/11/07 06:48:35;;;;;;;32.63;15.00;;;;;;;8.98;85.80;102031.60;1780650;78;21611;-67
2021/11/07 06:51:02;;;;;;;26.93;15.03;;;;;;;9.11;85.57;102035.94;1778799;79;21124;-67
2021/11/07 06:53:29;;;;;;;30.88;14.50;;;;;;;9.23;85.31;102030.05;1783841;78;21064;-67
2021/11/07 06:55:57;;;;;;;31.10;15.18;;;;;;;9.33;85.08;102025.05;1784003;79;21558;-67
2021/11/07 06:58:23;;;;;;;27.95;13.65;;;;;;;9.43;85.00;102028.09;1779437;78;21486;-67
2021/11/07 07:00:50;;;;;;;25.60;13.78;;;;;;;9.54;85.09;102036.45;1778160;77;21766;-67
2021/11/07 07:03:18;;;;;;;30.20;14.03;;;;;;;9.65;85.03;102026.52;1777028;78;21733;-67
2021/11/07 07:05:45;;;;;;;28.87;14.45;;;;;;;9.74;84.94;102026.41;1785377;79;21074;-68
2021/11/07 07:08:17;;;;;;;27.87;14.98;;;;;;;9.85;84.94;102025.42;1791699;77;20905;-66
2021/11/07 07:10:53;;;;;;;25.17;14.10;;;;;;;9.92;84.78;102028.45;1782312;79;21057;-66
2021/11/07 07:13:26;;;;;;;25.02;14.80;;;;;;;10.00;84.84;102025.22;1788842;79;21083;-66
2021/11/07 07:16:01;;;;;;;26.07;14.87;;;;;;;10.12;84.89;102023.31;1786946;79;21510;-66
2021/11/07 07:18:43;;;;;;;30.02;14.20;;;;;;;10.24;84.94;102019.58;1749371;80;21048;-66
2021/11/07 07:21:11;;;;;;;22.80;13.15;;;;;;;10.36;84.75;102011.83;1751178;80;21021;-66
2021/11/07 07:26:12;;;;;;;29.80;15.60;;;;;;;10.57;84.51;102016.02;1728946;80;21041;-66
2021/11/07 07:33:58;;;;;;;40.10;14.95;;;;;;;10.81;83.83;102007.16;1724364;82;20160;-66
2021/11/07 07:36:21;;;;;;;30.20;14.58;;;;;;;10.92;83.44;101996.25;1730011;82;21057;-65
2021/11/07 07:38:47;;;;;;;38.20;15.03;;;;;;;11.00;83.12;101987.63;1747095;79;21149;-67
2021/11/07 07:41:14;;;;;;;30.52;14.30;;;;;;;11.08;82.96;101980.33;1754845;79;21166;-67
2021/11/07 07:43:41;;;;;;;27.93;13.88;;;;;;;11.17;82.83;101975.25;1753781;79;21033;-67
2021/11/07 07:46:11;;;;;;;23.38;13.48;;;;;;;11.27;82.55;101974.20;1753679;79;21442;-67
2021/11/07 07:48:41;;;;;;;25.40;14.07;;;;;;;11.33;82.33;101991.97;1752413;79;21060;-66
2021/11/07 07:51:04;;;;;;;23.73;14.43;;;;;;;11.44;82.44;101983.70;1754853;79;21076;-67
2021/11/07 07:53:30;;;;;;;28.95;14.20;;;;;;;11.54;82.17;101984.42;1748230;79;21103;-66
2021/11/07 07:55:57;;;;;;;27.05;12.63;;;;;;;11.64;82.28;101972.59;1727195;81;21080;-66
2021/11/07 07:58:23;;;;;;;23.45;12.75;;;;;;;11.75;82.01;101970.56;1725911;81;21052;-67
2021/11/07 08:00:53;;;;;;;24.63;13.03;;;;;;;11.87;82.08;101968.55;1736901;80;21097;-66
2021/11/07 08:03:20;;;;;;;21.25;13.28;;;;;;;11.98;81.97;101970.54;1722565;81;21557;-66
2021/11/07 08:05:46;;;;;;;20.40;12.37;;;;;;;12.11;81.50;101967.63;1745625;79;21088;-66
2021/11/07 08:08:13;;;;;;;22.13;12.65;;;;;;;12.22;81.16;101972.77;1751387;80;20991;-66
2021/11/07 08:10:39;;;;;;;19.75;10.90;;;;;;;12.35;80.55;101969.34;1754976;80;21080;-66
2021/11/07 08:13:06;;;;;;;22.17;10.68;;;;;;;12.52;79.66;101976.56;1751434;80;21079;-67
2021/11/07 08:15:35;;;;;;;15.43;10.78;;;;;;;12.63;78.73;101965.99;1748536;80;21116;-59
2021/11/07 08:18:02;;;;;;;16.85;11.25;;;;;;;12.75;77.77;101964.36;1742327;80;21142;-59
2021/11/07 08:20:29;;;;;;;19.07;10.95;;;;;;;12.82;76.63;101954.30;1749396;80;21036;-59
2021/11/07 08:22:56;;;;;;;17.73;11.45;;;;;;;12.85;76.27;101955.13;1748255;80;21064;-66
2021/11/07 08:25:24;;;;;;;15.08;10.58;;;;;;;12.89;76.04;101956.80;1730883;80;21108;-67
2021/11/07 08:27:59;;;;;;;18.00;11.28;;;;;;;12.94;75.81;101954.00;1724385;81;21135;-66
2021/11/07 08:30:25;;;;;;;15.43;10.82;;;;;;;12.99;75.78;101959.28;1729628;82;21820;-66
2021/11/07 08:32:53;;;;;;;17.05;11.25;;;;;;;13.06;75.43;101966.74;1730777;81;20953;-65
2021/11/07 08:35:21;;;;;;;15.75;10.32;;;;;;;13.07;75.22;101958.61;1735076;81;21040;-67
2021/11/07 08:37:59;;;;;;;14.93;10.60;;;;;;;13.07;75.39;101955.91;1731769;81;21028;-65
2021/11/07 08:40:29;;;;;;;18.42;11.25;;;;;;;13.12;75.39;101951.28;1735617;81;21378;-67
2021/11/07 08:43:01;;;;;;;16.02;10.03;;;;;;;13.16;75.34;101953.00;1729514;82;21869;-66
2021/11/07 09:05:22;;;;;;;19.75;11.63;;;;;;;13.58;75.09;101945.59;1778502;77;21049;-66
2021/11/07 09:09:32;;;;;;;17.30;10.95;;;;;;;13.76;74.51;101934.76;1788771;78;21039;-66
2021/11/07 09:12:00;;;;;;;18.23;11.48;;;;;;;13.80;74.04;101928.79;1784217;79;21520;-66
2021/11/07 09:14:34;;;;;;;18.48;11.45;;;;;;;13.80;73.90;101916.66;1783431;77;21112;-66
2021/11/07 09:16:58;;;;;;;15.72;10.35;;;;;;;13.80;73.91;101912.61;1785599;79;21060;-67
2021/11/07 09:19:27;;;;;;;16.35;11.20;;;;;;;13.81;73.89;101906.30;1784079;78;21027;-67
2021/11/07 09:22:01;;;;;;;17.52;11.05;;;;;;;13.82;73.98;101902.70;1782105;78;22457;-66
2021/11/07 09:24:36;;;;;;;17.17;10.70;;;;;;;13.85;74.07;101894.03;1726424;81;21144;-66
2021/11/07 09:26:56;;;;;;;18.90;10.63;;;;;;;13.89;73.88;101880.00;1739558;80;21457;-66
2021/11/07 09:29:44;;;;;;;17.32;10.38;;;;;;;13.92;73.91;101867.77;1733806;81;46901;-66
2021/11/07 09:32:14;;;;;;;16.67;9.88;;;;;;;13.99;73.88;101870.69;1741933;80;21049;-66
2021/11/07 09:34:54;;;;;;;21.57;11.50;;;;;;;14.07;73.51;101861.49;1738692;80;21000;-66
2021/11/07 09:37:22;;;;;;;15.78;10.43;;;;;;;14.06;73.28;101853.85;1753699;80;21464;-66
2021/11/07 09:39:50;;;;;;;15.85;10.63;;;;;;;14.11;73.24;101857.28;1749693;80;21024;-66
2021/11/07 09:44:50;;;;;;;15.93;10.78;;;;;;;14.23;72.87;101845.69;1745108;80;21540;-66
2021/11/07 09:47:17;;;;;;;15.35;9.95;;;;;;;14.24;72.46;101841.57;1734357;80;21205;-66
2021/11/07 09:49:48;;;;;;;16.40;10.50;;;;;;;14.26;72.29;101835.69;1730446;81;21526;-67
2021/11/07 09:52:14;;;;;;;14.85;10.63;;;;;;;14.28;72.08;101835.62;1730886;82;21018;-67
2021/11/07 09:54:45;;;;;;;17.85;11.18;;;;;;;14.26;71.90;101831.64;1733590;81;21040;-66
2021/11/07 09:57:16;;;;;;;17.32;10.53;;;;;;;14.28;71.98;101840.56;1734192;80;21542;-66
2021/11/07 09:59:40;;;;;;;17.35;10.88;;;;;;;14.37;71.47;101827.69;1731017;82;21116;-66
2021/11/07 10:02:07;;;;;;;15.55;10.23;;;;;;;14.40;71.01;101827.58;1727675;80;21007;-65
2021/11/07 10:04:39;;;;;;;17.32;10.50;;;;;;;14.42;70.70;101818.96;1732621;82;21544;-67
2021/11/07 10:07:18;;;;;;;12.63;9.48;;;;;;;14.46;70.29;101807.13;1731983;80;21127;-67
2021/11/07 10:09:47;;;;;;;15.65;9.83;;;;;;;14.47;69.93;101804.84;1753112;79;21091;-67
2021/11/07 10:12:19;;;;;;;15.70;10.63;;;;;;;14.52;69.71;101792.55;1733432;80;21088;-67
2021/11/07 10:14:52;;;;;;;14.18;9.75;;;;;;;14.56;69.44;101797.79;1727515;82;21643;-67
2021/11/07 10:17:29;;;;;;;13.90;9.88;;;;;;;14.59;69.17;101793.63;1736107;82;21051;-66
2021/11/07 10:20:00;;;;;;;14.98;9.93;;;;;;;14.62;69.24;101791.30;1733417;82;21126;-67
2021/11/07 10:22:29;;;;;;;17.62;9.70;;;;;;;14.66;69.09;101782.61;1734156;82;21084;-67
2021/11/07 10:24:56;;;;;;;13.90;10.08;;;;;;;14.70;69.08;101773.00;1736975;81;21095;-67
2021/11/07 10:27:23;;;;;;;16.75;9.85;;;;;;;14.74;68.93;101763.02;1735501;80;22091;-67
2021/11/07 10:29:51;;;;;;;15.88;10.65;;;;;;;14.78;68.88;101760.61;1729283;80;21056;-67
2021/11/07 10:32:41;;;;;;;15.32;10.03;;;;;;;14.80;68.90;101758.73;1736394;80;21064;-66
2021/11/07 10:41:10;;;;;;;16.30;10.20;;;;;;;14.80;68.74;101742.54;1737570;80;21087;-67
2021/11/07 10:43:42;;;;;;;14.55;10.00;;;;;;;14.80;69.00;101741.19;1710395;80;21137;-65
2021/11/07 10:46:32;;;;;;;14.00;9.30;;;;;;;14.86;69.24;101742.30;1740725;81;21509;-67
2021/11/07 10:54:27;;;;;;;13.83;9.35;;;;;;;15.00;68.02;101732.33;1734237;81;21546;-66
2021/11/07 10:57:15;;;;;;;14.20;9.55;;;;;;;15.03;67.68;101724.59;1738299;81;21020;-66
2021/11/07 11:00:05;;;;;;;13.62;9.50;;;;;;;15.07;67.43;101732.98;1739650;80;21080;-67
2021/11/07 11:02:42;;;;;;;17.40;10.48;;;;;;;15.10;67.10;101734.70;1734584;81;21056;-66
2021/11/07 11:05:18;;;;;;;17.30;10.20;;;;;;;15.06;67.08;101735.27;1739177;81;21152;-66
2021/11/07 11:07:59;;;;;;;13.18;9.10;;;;;;;14.99;67.22;101722.95;1744023;79;21139;-66
2021/11/07 11:13:26;;;;;;;14.78;9.48;;;;;;;14.82;67.46;101713.66;1739537;80;21142;-67
2021/11/07 11:16:20;;;;;;;13.72;9.43;;;;;;;14.69;67.91;101703.77;1739388;80;21033;-58
2021/11/07 11:18:53;;;;;;;13.65;9.80;;;;;;;14.60;68.26;101704.11;1734553;80;21036;-60
2021/11/07 11:21:31;;;;;;;11.08;8.25;;;;;;;14.52;68.67;101709.79;1736863;80;21349;-66
2021/11/07 11:32:01;;;;;;;12.15;8.53;;;;;;;14.41;69.80;101677.80;1742996;80;21721;-67
2021/11/07 11:34:32;;;;;;;11.95;8.38;;;;;;;14.46;69.84;101676.26;1732723;80;21107;-66
2021/11/07 11:37:06;;;;;;;13.80;8.40;;;;;;;14.43;69.93;101664.23;1734520;81;21059;-66
2021/11/07 11:39:30;;;;;;;14.50;8.88;;;;;;;14.39;69.96;101666.64;1735377;81;21079;-66
2021/11/07 11:42:01;;;;;;;13.68;8.43;;;;;;;14.35;70.17;101663.65;1736596;80;21013;-67
2021/11/07 11:44:21;;;;;;;14.47;8.15;;;;;;;14.33;70.39;101664.58;1736840;81;22191;-67
2021/11/07 11:47:03;;;;;;;11.12;8.30;;;;;;;14.33;70.63;101657.84;1741194;80;21104;-67
2021/11/07 11:52:12;;;;;;;15.55;7.60;;;;;;;14.42;70.83;101663.83;1730585;81;21359;-66
2021/11/07 11:54:38;;;;;;;14.38;8.98;;;;;;;14.47;71.05;101651.04;1732571;80;21544;-68
2021/11/07 11:59:58;;;;;;;12.28;8.38;;;;;;;14.53;71.18;101629.25;1733821;80;21217;-66
2021/11/07 12:02:27;;;;;;;11.85;8.10;;;;;;;14.54;71.40;101621.56;1737893;81;22284;-68
2021/11/07 12:05:27;;;;;;;12.63;8.10;;;;;;;14.55;71.67;101621.97;1741785;80;21080;-71
2021/11/07 12:08:22;;;;;;;15.75;8.88;;;;;;;14.57;71.79;101615.14;1732164;80;21021;-67
2021/11/07 12:10:56;;;;;;;14.25;7.42;;;;;;;14.56;72.05;101621.03;1737005;80;21126;-67
2021/11/07 12:13:44;;;;;;;12.37;8.15;;;;;;;14.55;72.47;101642.66;1740992;81;21064;-66
2021/11/07 12:16:17;;;;;;;11.83;7.50;;;;;;;14.52;72.86;101654.47;1741743;80;21521;-66
2021/11/07 12:19:04;;;;;;;13.95;7.92;;;;;;;14.55;73.19;101645.36;1744145;81;21551;-65
2021/11/07 12:21:57;;;;;;;13.05;8.83;;;;;;;14.58;73.39;101642.09;1676127;83;21099;-67
2021/11/07 12:24:32;;;;;;;14.65;8.83;;;;;;;14.65;73.49;101617.56;1747302;79;21147;-67
2021/11/07 12:27:22;;;;;;;14.60;9.23;;;;;;;14.69;73.15;101597.60;1765240;79;21526;-67
2021/11/07 12:29:53;;;;;;;13.10;9.08;;;;;;;14.70;72.98;101587.21;1792603;78;21483;-67
2021/11/07 12:32:25;;;;;;;15.98;8.38;;;;;;;14.68;73.03;101579.65;1794216;78;21521;-66
2021/11/07 12:35:11;;;;;;;17.25;8.93;;;;;;;14.66;73.02;101575.68;1797648;77;21539;-67
2021/11/07 12:41:01;;;;;;;11.53;7.30;;;;;;;14.61;72.97;101569.10;1799745;78;22187;-67
2021/11/07 12:43:44;;;;;;;13.53;8.00;;;;;;;14.59;72.96;101575.03;1803125;77;21103;-66
2021/11/07 12:46:29;;;;;;;10.93;8.28;;;;;;;14.58;73.10;101576.42;1797310;78;21079;-66
2021/11/07 12:48:53;;;;;;;13.58;7.37;;;;;;;14.58;73.28;101568.33;1797832;78;21090;-66
2021/11/07 12:51:24;;;;;;;13.88;8.53;;;;;;;14.56;73.48;101559.42;1808238;78;21706;-67
2021/11/07 12:54:09;;;;;;;13.13;8.13;;;;;;;14.58;73.58;101555.73;1805126;77;20980;-67